sensor_id;sensor_type;location;lat;lon;timestamp;pressure;altitude;pressure_sealevel;temperature;humidity
12759;BME280;20944;47.048;15.390;2023-08-30T00:01:03;96519.53;;;15.86;100.00
12759;BME280;20944;47.048;15.390;2023-08-30T00:03:31;96514.56;;;15.95;100.00
12759;BME280;20944;47.048;15.390;2023-08-30T00:06:04;96483.13;;;15.64;100.00
12759;BME280;20944;47.048;15.390;2023-08-30T00:08:32;96523.09;;;15.73;100.00
12759;BME280;20944;47.048;15.390;2023-08-30T00:11:02;96468.13;;;15.38;100.00
12759;BME280;20944;47.048;15.390;2023-08-30T00:13:32;96522.84;;;15.63;100.00
12759;BME280;20944;47.048;15.390;2023-08-30T00:16:01;96525.38;;;15.64;100.00
12759;BME280;20944;47.048;15.390;2023-08-30T00:18:30;96530.66;;;15.64;100.00
12759;BME280;20944;47.048;15.390;2023-08-30T00:20:59;96509.69;;;15.49;100.00
12759;BME280;20944;47.048;15.390;2023-08-30T00:23:27;96540.47;;;15.62;100.00
12759;BME280;20944;47.048;15.390;2023-08-30T00:25:55;96538.38;;;15.68;100.00
12759;BME280;20944;47.048;15.390;2023-08-30T00:28:25;96543.31;;;15.59;100.00
12759;BME280;20944;47.048;15.390;2023-08-30T00:30:53;96567.38;;;15.55;100.00
12759;BME280;20944;47.048;15.390;2023-08-30T00:33:22;96549.31;;;15.61;100.00
12759;BME280;20944;47.048;15.390;2023-08-30T00:35:55;96542.88;;;15.53;100.00
12759;BME280;20944;47.048;15.390;2023-08-30T00:38:25;96532.03;;;15.43;100.00
12759;BME280;20944;47.048;15.390;2023-08-30T00:40:53;96551.03;;;15.62;100.00
12759;BME280;20944;47.048;15.390;2023-08-30T00:43:22;96548.78;;;15.56;100.00
12759;BME280;20944;47.048;15.390;2023-08-30T00:45:51;96553.72;;;15.48;100.00
12759;BME280;20944;47.048;15.390;2023-08-30T00:48:20;96538.84;;;15.33;100.00
12759;BME280;20944;47.048;15.390;2023-08-30T00:50:48;96556.34;;;15.48;100.00
12759;BME280;20944;47.048;15.390;2023-08-30T00:53:17;96564.91;;;15.52;100.00
12759;BME280;20944;47.048;15.390;2023-08-30T00:55:45;96557.94;;;15.51;100.00
12759;BME280;20944;47.048;15.390;2023-08-30T00:58:13;96568.09;;;15.57;100.00
12759;BME280;20944;47.048;15.390;2023-08-30T01:00:42;96566.50;;;15.69;100.00
12759;BME280;20944;47.048;15.390;2023-08-30T01:03:12;96571.66;;;15.70;100.00
12759;BME280;20944;47.048;15.390;2023-08-30T01:05:41;96570.94;;;15.68;100.00
12759;BME280;20944;47.048;15.390;2023-08-30T01:08:09;96568.19;;;15.70;100.00
12759;BME280;20944;47.048;15.390;2023-08-30T01:10:52;96574.31;;;15.70;100.00
12759;BME280;20944;47.048;15.390;2023-08-30T01:13:24;96559.88;;;15.61;100.00
12759;BME280;20944;47.048;15.390;2023-08-30T01:15:57;96563.13;;;15.67;100.00
12759;BME280;20944;47.048;15.390;2023-08-30T01:18:32;96547.81;;;15.57;100.00
12759;BME280;20944;47.048;15.390;2023-08-30T01:21:04;96572.91;;;15.64;100.00
12759;BME280;20944;47.048;15.390;2023-08-30T01:23:40;96569.56;;;15.75;100.00
12759;BME280;20944;47.048;15.390;2023-08-30T01:26:13;96571.47;;;15.73;100.00
12759;BME280;20944;47.048;15.390;2023-08-30T01:28:48;96574.00;;;15.75;100.00
12759;BME280;20944;47.048;15.390;2023-08-30T01:31:18;96568.19;;;15.70;100.00
12759;BME280;20944;47.048;15.390;2023-08-30T01:33:47;96574.97;;;15.74;100.00
12759;BME280;20944;47.048;15.390;2023-08-30T01:36:15;96568.00;;;15.73;100.00
12759;BME280;20944;47.048;15.390;2023-08-30T01:38:44;96569.88;;;15.71;100.00
12759;BME280;20944;47.048;15.390;2023-08-30T01:41:13;96572.00;;;15.66;100.00
12759;BME280;20944;47.048;15.390;2023-08-30T01:43:42;96566.78;;;15.64;100.00
12759;BME280;20944;47.048;15.390;2023-08-30T01:46:13;96561.88;;;15.72;100.00
12759;BME280;20944;47.048;15.390;2023-08-30T01:48:42;96559.41;;;15.69;100.00
12759;BME280;20944;47.048;15.390;2023-08-30T01:51:11;96548.22;;;15.66;100.00
12759;BME280;20944;47.048;15.390;2023-08-30T01:53:40;96555.94;;;15.69;100.00
12759;BME280;20944;47.048;15.390;2023-08-30T01:56:08;96547.38;;;15.65;100.00
12759;BME280;20944;47.048;15.390;2023-08-30T01:58:36;96554.88;;;15.71;100.00
12759;BME280;20944;47.048;15.390;2023-08-30T02:01:05;96560.50;;;15.79;100.00
12759;BME280;20944;47.048;15.390;2023-08-30T02:03:34;96558.06;;;15.76;100.00
12759;BME280;20944;47.048;15.390;2023-08-30T02:06:04;96546.75;;;15.74;100.00
12759;BME280;20944;47.048;15.390;2023-08-30T02:08:38;96549.81;;;15.68;100.00
12759;BME280;20944;47.048;15.390;2023-08-30T02:11:14;96531.34;;;15.54;100.00
12759;BME280;20944;47.048;15.390;2023-08-30T02:13:45;96550.28;;;15.60;100.00
12759;BME280;20944;47.048;15.390;2023-08-30T02:16:14;96563.41;;;15.62;100.00
12759;BME280;20944;47.048;15.390;2023-08-30T02:18:46;96555.38;;;15.63;100.00
12759;BME280;20944;47.048;15.390;2023-08-30T02:21:15;96550.34;;;15.73;100.00
12759;BME280;20944;47.048;15.390;2023-08-30T02:23:43;96560.50;;;15.79;100.00
12759;BME280;20944;47.048;15.390;2023-08-30T02:26:11;96561.75;;;15.74;100.00
12759;BME280;20944;47.048;15.390;2023-08-30T02:28:40;96561.44;;;15.66;100.00
12759;BME280;20944;47.048;15.390;2023-08-30T02:31:08;96558.97;;;15.62;100.00
12759;BME280;20944;47.048;15.390;2023-08-30T02:33:36;96553.88;;;15.59;100.00
12759;BME280;20944;47.048;15.390;2023-08-30T02:36:06;96557.75;;;15.54;100.00
12759;BME280;20944;47.048;15.390;2023-08-30T02:38:34;96561.59;;;15.62;100.00
12759;BME280;20944;47.048;15.390;2023-08-30T02:41:03;96559.94;;;15.47;100.00
12759;BME280;20944;47.048;15.390;2023-08-30T02:43:31;96531.13;;;15.30;100.00
12759;BME280;20944;47.048;15.390;2023-08-30T02:45:59;96564.00;;;15.38;100.00
12759;BME280;20944;47.048;15.390;2023-08-30T02:48:28;96566.41;;;15.29;100.00
12759;BME280;20944;47.048;15.390;2023-08-30T02:50:56;96565.75;;;15.25;100.00
12759;BME280;20944;47.048;15.390;2023-08-30T02:53:26;96560.47;;;15.25;100.00
12759;BME280;20944;47.048;15.390;2023-08-30T02:55:54;96562.53;;;15.20;100.00
12759;BME280;20944;47.048;15.390;2023-08-30T02:58:23;96554.72;;;15.19;100.00
12759;BME280;20944;47.048;15.390;2023-08-30T03:00:51;96562.06;;;15.14;100.00
12759;BME280;20944;47.048;15.390;2023-08-30T03:03:19;96562.47;;;15.07;100.00
12759;BME280;20944;47.048;15.390;2023-08-30T03:05:47;96563.41;;;15.06;100.00
12759;BME280;20944;47.048;15.390;2023-08-30T03:08:16;96557.97;;;15.09;100.00
12759;BME280;20944;47.048;15.390;2023-08-30T03:10:46;96558.63;;;14.99;100.00
12759;BME280;20944;47.048;15.390;2023-08-30T03:13:14;96564.00;;;14.97;100.00
12759;BME280;20944;47.048;15.390;2023-08-30T03:15:42;96561.38;;;14.97;100.00
12759;BME280;20944;47.048;15.390;2023-08-30T03:18:10;96566.66;;;14.97;100.00
12759;BME280;20944;47.048;15.390;2023-08-30T03:20:39;96563.63;;;15.03;100.00
12759;BME280;20944;47.048;15.390;2023-08-30T03:23:07;96561.25;;;14.99;100.00
12759;BME280;20944;47.048;15.390;2023-08-30T03:25:35;96552.88;;;14.92;100.00
12759;BME280;20944;47.048;15.390;2023-08-30T03:28:05;96558.28;;;14.91;100.00
12759;BME280;20944;47.048;15.390;2023-08-30T03:30:34;96559.78;;;14.80;100.00
12759;BME280;20944;47.048;15.390;2023-08-30T03:33:02;96555.22;;;14.82;100.00
12759;BME280;20944;47.048;15.390;2023-08-30T03:35:33;96553.28;;;14.86;100.00
12759;BME280;20944;47.048;15.390;2023-08-30T03:38:02;96555.16;;;14.84;100.00
12759;BME280;20944;47.048;15.390;2023-08-30T03:40:30;96558.53;;;14.86;100.00
12759;BME280;20944;47.048;15.390;2023-08-30T03:42:58;96551.56;;;14.85;100.00
12759;BME280;20944;47.048;15.390;2023-08-30T03:45:28;96548.16;;;14.83;100.00
12759;BME280;20944;47.048;15.390;2023-08-30T03:47:56;96545.91;;;14.91;100.00
12759;BME280;20944;47.048;15.390;2023-08-30T03:50:24;96538.00;;;14.91;100.00
12759;BME280;20944;47.048;15.390;2023-08-30T03:52:52;96549.31;;;14.93;100.00
12759;BME280;20944;47.048;15.390;2023-08-30T03:55:21;96544.41;;;14.87;100.00
12759;BME280;20944;47.048;15.390;2023-08-30T03:57:49;96550.06;;;14.81;100.00
12759;BME280;20944;47.048;15.390;2023-08-30T04:00:17;96556.56;;;14.90;100.00
12759;BME280;20944;47.048;15.390;2023-08-30T04:02:47;96543.84;;;14.82;100.00
12759;BME280;20944;47.048;15.390;2023-08-30T04:05:16;96549.22;;;14.80;100.00
12759;BME280;20944;47.048;15.390;2023-08-30T04:07:44;96551.00;;;14.80;100.00
12759;BME280;20944;47.048;15.390;2023-08-30T04:10:12;96556.19;;;14.81;100.00
12759;BME280;20944;47.048;15.390;2023-08-30T04:12:40;96556.19;;;14.81;100.00
12759;BME280;20944;47.048;15.390;2023-08-30T04:15:09;96551.69;;;14.83;100.00
12759;BME280;20944;47.048;15.390;2023-08-30T04:17:39;96551.00;;;14.80;100.00
12759;BME280;20944;47.048;15.390;2023-08-30T04:20:10;96484.69;;;14.43;100.00
12759;BME280;20944;47.048;15.390;2023-08-30T04:22:38;96543.38;;;14.75;100.00
12759;BME280;20944;47.048;15.390;2023-08-30T04:25:07;96535.00;;;14.69;100.00
12759;BME280;20944;47.048;15.390;2023-08-30T04:27:36;96518.44;;;14.67;100.00
12759;BME280;20944;47.048;15.390;2023-08-30T04:30:05;96536.97;;;14.79;100.00
12759;BME280;20944;47.048;15.390;2023-08-30T04:32:33;96544.63;;;14.84;100.00
12759;BME280;20944;47.048;15.390;2023-08-30T04:35:02;96535.94;;;14.82;100.00
12759;BME280;20944;47.048;15.390;2023-08-30T04:37:32;96543.09;;;14.80;100.00
12759;BME280;20944;47.048;15.390;2023-08-30T04:40:00;96530.47;;;14.85;100.00
12759;BME280;20944;47.048;15.390;2023-08-30T04:42:30;96535.47;;;14.90;100.00
12759;BME280;20944;47.048;15.390;2023-08-30T04:44:58;96542.50;;;14.89;100.00
12759;BME280;20944;47.048;15.390;2023-08-30T04:47:28;96548.34;;;14.94;100.00
12759;BME280;20944;47.048;15.390;2023-08-30T04:49:56;96551.09;;;14.93;100.00
12759;BME280;20944;47.048;15.390;2023-08-30T04:52:24;96564.56;;;15.02;100.00
12759;BME280;20944;47.048;15.390;2023-08-30T04:54:54;96547.13;;;15.00;100.00
12759;BME280;20944;47.048;15.390;2023-08-30T04:57:22;96543.06;;;14.94;100.00
12759;BME280;20944;47.048;15.390;2023-08-30T04:59:51;96547.34;;;14.97;100.00
12759;BME280;20944;47.048;15.390;2023-08-30T05:02:19;96548.34;;;14.94;100.00
12759;BME280;20944;47.048;15.390;2023-08-30T05:04:47;96549.03;;;14.98;100.00
12759;BME280;20944;47.048;15.390;2023-08-30T05:07:15;96552.03;;;14.92;100.00
12759;BME280;20944;47.048;15.390;2023-08-30T05:09:43;96550.06;;;14.81;100.00
12759;BME280;20944;47.048;15.390;2023-08-30T05:12:13;96541.22;;;14.82;100.00
12759;BME280;20944;47.048;15.390;2023-08-30T05:14:41;96550.63;;;14.86;100.00
12759;BME280;20944;47.048;15.390;2023-08-30T05:17:10;96545.72;;;14.94;100.00
12759;BME280;20944;47.048;15.390;2023-08-30T05:19:38;96548.53;;;15.05;100.00
12759;BME280;20944;47.048;15.390;2023-08-30T05:22:06;96555.13;;;15.13;100.00
12759;BME280;20944;47.048;15.390;2023-08-30T05:24:34;96522.34;;;15.02;100.00
12759;BME280;20944;47.048;15.390;2023-08-30T05:27:03;96553.94;;;15.31;100.00
12759;BME280;20944;47.048;15.390;2023-08-30T05:29:33;96556.09;;;15.38;100.00
12759;BME280;20944;47.048;15.390;2023-08-30T05:32:01;96530.09;;;15.32;100.00
12759;BME280;20944;47.048;15.390;2023-08-30T05:34:30;96562.81;;;15.57;100.00
12759;BME280;20944;47.048;15.390;2023-08-30T05:36:58;96565.53;;;15.70;100.00
12759;BME280;20944;47.048;15.390;2023-08-30T05:39:26;96568.19;;;15.70;100.00
12759;BME280;20944;47.048;15.390;2023-08-30T05:41:54;96568.72;;;15.75;100.00
12759;BME280;20944;47.048;15.390;2023-08-30T05:44:23;96578.13;;;15.66;100.00
12759;BME280;20944;47.048;15.390;2023-08-30T05:46:52;96577.78;;;15.71;100.00
12759;BME280;20944;47.048;15.390;2023-08-30T05:49:20;96571.50;;;15.59;100.00
12759;BME280;20944;47.048;15.390;2023-08-30T05:51:48;96587.25;;;15.60;100.00
12759;BME280;20944;47.048;15.390;2023-08-30T05:54:16;96583.75;;;15.60;100.00
12759;BME280;20944;47.048;15.390;2023-08-30T05:56:45;96556.91;;;15.53;100.00
12759;BME280;20944;47.048;15.390;2023-08-30T05:59:13;96578.47;;;15.60;100.00
12759;BME280;20944;47.048;15.390;2023-08-30T06:01:41;96576.09;;;15.70;100.00
12759;BME280;20944;47.048;15.390;2023-08-30T06:04:10;96575.91;;;15.73;100.00
12759;BME280;20944;47.048;15.390;2023-08-30T06:06:40;96576.88;;;15.72;100.00
12759;BME280;20944;47.048;15.390;2023-08-30T06:09:08;96594.84;;;15.79;100.00
12759;BME280;20944;47.048;15.390;2023-08-30T06:11:38;96577.41;;;15.77;100.00
12759;BME280;20944;47.048;15.390;2023-08-30T06:14:06;96592.03;;;15.95;100.00
12759;BME280;20944;47.048;15.390;2023-08-30T06:16:34;96595.56;;;16.08;100.00
12759;BME280;20944;47.048;15.390;2023-08-30T06:19:03;96603.19;;;16.13;100.00
12759;BME280;20944;47.048;15.390;2023-08-30T06:21:32;96610.84;;;16.30;100.00
12759;BME280;20944;47.048;15.390;2023-08-30T06:24:00;96616.34;;;16.40;100.00
12759;BME280;20944;47.048;15.390;2023-08-30T06:26:29;96602.22;;;16.54;100.00
12759;BME280;20944;47.048;15.390;2023-08-30T06:28:57;96613.00;;;16.63;100.00
12759;BME280;20944;47.048;15.390;2023-08-30T06:31:30;96615.06;;;16.73;100.00
12759;BME280;20944;47.048;15.390;2023-08-30T06:34:00;96604.06;;;16.79;100.00
12759;BME280;20944;47.048;15.390;2023-08-30T06:36:28;96622.66;;;16.90;100.00
12759;BME280;20944;47.048;15.390;2023-08-30T06:38:57;96628.91;;;17.02;100.00
12759;BME280;20944;47.048;15.390;2023-08-30T06:41:26;96626.03;;;17.17;100.00
12759;BME280;20944;47.048;15.390;2023-08-30T06:43:54;96621.56;;;17.31;100.00
12759;BME280;20944;47.048;15.390;2023-08-30T06:46:23;96603.47;;;17.24;100.00
12759;BME280;20944;47.048;15.390;2023-08-30T06:48:51;96623.63;;;17.51;100.00
12759;BME280;20944;47.048;15.390;2023-08-30T06:51:20;96630.19;;;17.58;100.00
12759;BME280;20944;47.048;15.390;2023-08-30T06:53:48;96628.03;;;17.63;100.00
12759;BME280;20944;47.048;15.390;2023-08-30T06:56:18;96632.19;;;17.67;100.00
12759;BME280;20944;47.048;15.390;2023-08-30T06:58:46;96633.47;;;17.74;100.00
12759;BME280;20944;47.048;15.390;2023-08-30T07:01:14;96637.78;;;17.75;100.00
12759;BME280;20944;47.048;15.390;2023-08-30T07:03:43;96636.38;;;17.83;100.00
12759;BME280;20944;47.048;15.390;2023-08-30T07:06:11;96619.13;;;17.77;100.00
12759;BME280;20944;47.048;15.390;2023-08-30T07:08:39;96629.53;;;17.80;100.00
12759;BME280;20944;47.048;15.390;2023-08-30T07:11:08;96622.16;;;17.84;100.00
12759;BME280;20944;47.048;15.390;2023-08-30T07:13:55;96634.13;;;17.89;100.00
12759;BME280;20944;47.048;15.390;2023-08-30T07:16:23;96640.84;;;17.82;100.00
12759;BME280;20944;47.048;15.390;2023-08-30T07:18:51;96643.09;;;17.75;100.00
12759;BME280;20944;47.048;15.390;2023-08-30T07:21:19;96647.13;;;17.68;100.00
12759;BME280;20944;47.048;15.390;2023-08-30T07:23:48;96650.72;;;17.67;100.00
12759;BME280;20944;47.048;15.390;2023-08-30T07:26:16;96649.25;;;17.63;100.00
12759;BME280;20944;47.048;15.390;2023-08-30T07:28:45;96655.63;;;17.73;100.00
12759;BME280;20944;47.048;15.390;2023-08-30T07:31:15;96643.81;;;17.77;100.00
12759;BME280;20944;47.048;15.390;2023-08-30T07:33:45;96667.19;;;17.96;100.00
12759;BME280;20944;47.048;15.390;2023-08-30T07:36:13;96651.41;;;17.95;100.00
12759;BME280;20944;47.048;15.390;2023-08-30T07:38:41;96656.53;;;18.09;100.00
12759;BME280;20944;47.048;15.390;2023-08-30T07:41:10;96665.72;;;18.16;100.00
12759;BME280;20944;47.048;15.390;2023-08-30T07:43:38;96642.66;;;18.05;100.00
12759;BME280;20944;47.048;15.390;2023-08-30T07:46:07;96669.72;;;18.22;100.00
12759;BME280;20944;47.048;15.390;2023-08-30T07:48:37;96673.13;;;18.24;100.00
12759;BME280;20944;47.048;15.390;2023-08-30T07:51:05;96658.50;;;18.18;100.00
12759;BME280;20944;47.048;15.390;2023-08-30T07:53:33;96677.84;;;18.31;100.00
12759;BME280;20944;47.048;15.390;2023-08-30T07:56:01;96676.25;;;18.29;100.00
12759;BME280;20944;47.048;15.390;2023-08-30T07:58:29;96684.47;;;18.26;100.00
12759;BME280;20944;47.048;15.390;2023-08-30T08:00:58;96682.66;;;18.26;100.00
12759;BME280;20944;47.048;15.390;2023-08-30T08:03:26;96689.75;;;18.26;100.00
12759;BME280;20944;47.048;15.390;2023-08-30T08:05:58;96687.75;;;18.29;100.00
12759;BME280;20944;47.048;15.390;2023-08-30T08:08:26;96692.34;;;18.39;100.00
12759;BME280;20944;47.048;15.390;2023-08-30T08:10:55;96664.53;;;18.20;100.00
12759;BME280;20944;47.048;15.390;2023-08-30T08:13:23;96688.41;;;18.44;100.00
12759;BME280;20944;47.048;15.390;2023-08-30T08:15:51;96693.59;;;18.46;100.00
12759;BME280;20944;47.048;15.390;2023-08-30T08:18:20;96700.88;;;18.55;100.00
12759;BME280;20944;47.048;15.390;2023-08-30T08:20:48;96690.81;;;18.47;100.00
12759;BME280;20944;47.048;15.390;2023-08-30T08:23:17;96701.25;;;18.62;100.00
12759;BME280;20944;47.048;15.390;2023-08-30T08:25:46;96701.78;;;18.67;100.00
12759;BME280;20944;47.048;15.390;2023-08-30T08:28:14;96695.53;;;18.68;100.00
12759;BME280;20944;47.048;15.390;2023-08-30T08:30:44;96704.25;;;18.81;100.00
12759;BME280;20944;47.048;15.390;2023-08-30T08:33:12;96703.69;;;19.00;100.00
12759;BME280;20944;47.048;15.390;2023-08-30T08:35:41;96697.53;;;19.10;100.00
12759;BME280;20944;47.048;15.390;2023-08-30T08:38:10;96699.75;;;19.28;100.00
12759;BME280;20944;47.048;15.390;2023-08-30T08:40:40;96695.34;;;19.62;100.00
12759;BME280;20944;47.048;15.390;2023-08-30T08:43:10;96684.50;;;19.97;100.00
12759;BME280;20944;47.048;15.390;2023-08-30T08:45:39;96694.47;;;20.38;100.00
12759;BME280;20944;47.048;15.390;2023-08-30T08:48:07;96693.50;;;20.71;100.00
12759;BME280;20944;47.048;15.390;2023-08-30T08:50:37;96689.88;;;20.93;100.00
12759;BME280;20944;47.048;15.390;2023-08-30T08:53:05;96694.94;;;20.96;100.00
12759;BME280;20944;47.048;15.390;2023-08-30T08:55:35;96695.69;;;20.66;100.00
12759;BME280;20944;47.048;15.390;2023-08-30T08:58:06;96691.06;;;20.36;100.00
12759;BME280;20944;47.048;15.390;2023-08-30T09:00:34;96688.47;;;20.14;100.00
12759;BME280;20944;47.048;15.390;2023-08-30T09:03:05;96684.91;;;19.92;100.00
12759;BME280;20944;47.048;15.390;2023-08-30T09:05:37;96685.63;;;19.94;100.00
12759;BME280;20944;47.048;15.390;2023-08-30T09:08:06;96686.19;;;20.09;100.00
12759;BME280;20944;47.048;15.390;2023-08-30T09:10:34;96674.75;;;20.30;100.00
12759;BME280;20944;47.048;15.390;2023-08-30T09:13:03;96689.47;;;20.56;100.00
12759;BME280;20944;47.048;15.390;2023-08-30T09:15:33;96676.25;;;20.55;100.00
12759;BME280;20944;47.048;15.390;2023-08-30T09:18:04;96693.47;;;20.39;100.00
12759;BME280;20944;47.048;15.390;2023-08-30T09:20:32;96698.34;;;20.23;100.00
12759;BME280;20944;47.048;15.390;2023-08-30T09:23:00;96697.28;;;20.26;100.00
12759;BME280;20944;47.048;15.390;2023-08-30T09:25:29;96683.78;;;20.06;100.00
12759;BME280;20944;47.048;15.390;2023-08-30T09:27:57;96686.09;;;20.00;100.00
12759;BME280;20944;47.048;15.390;2023-08-30T09:30:26;96684.78;;;19.94;100.00
12759;BME280;20944;47.048;15.390;2023-08-30T09:33:00;96683.44;;;20.00;100.00
12759;BME280;20944;47.048;15.390;2023-08-30T09:35:29;96689.81;;;20.08;100.00
12759;BME280;20944;47.048;15.390;2023-08-30T09:37:57;96678.22;;;20.09;100.00
12759;BME280;20944;47.048;15.390;2023-08-30T09:40:25;96676.16;;;20.13;100.00
12759;BME280;20944;47.048;15.390;2023-08-30T09:42:53;96621.13;;;19.70;100.00
12759;BME280;20944;47.048;15.390;2023-08-30T09:45:38;96679.53;;;20.04;100.00
12759;BME280;20944;47.048;15.390;2023-08-30T09:48:08;96681.78;;;19.87;100.00
12759;BME280;20944;47.048;15.390;2023-08-30T09:50:36;96674.28;;;19.81;100.00
12759;BME280;20944;47.048;15.390;2023-08-30T09:53:07;96629.69;;;19.51;100.00
12759;BME280;20944;47.048;15.390;2023-08-30T09:55:38;96656.16;;;19.53;100.00
12759;BME280;20944;47.048;15.390;2023-08-30T09:58:07;96675.88;;;19.61;100.00
12759;BME280;20944;47.048;15.390;2023-08-30T10:00:36;96670.31;;;19.64;100.00
12759;BME280;20944;47.048;15.390;2023-08-30T10:03:05;96671.41;;;19.62;100.00
12759;BME280;20944;47.048;15.390;2023-08-30T10:05:39;96674.03;;;19.73;100.00
12759;BME280;20944;47.048;15.390;2023-08-30T10:08:08;96654.09;;;19.79;100.00
12759;BME280;20944;47.048;15.390;2023-08-30T10:10:39;96675.34;;;19.79;100.00
12759;BME280;20944;47.048;15.390;2023-08-30T10:13:07;96668.72;;;19.84;100.00
12759;BME280;20944;47.048;15.390;2023-08-30T10:15:41;96664.75;;;19.67;100.00
12759;BME280;20944;47.048;15.390;2023-08-30T10:18:15;96659.94;;;19.61;100.00
12759;BME280;20944;47.048;15.390;2023-08-30T10:20:49;96658.84;;;19.64;100.00
12759;BME280;20944;47.048;15.390;2023-08-30T10:23:21;96657.38;;;19.49;100.00
12759;BME280;20944;47.048;15.390;2023-08-30T10:25:50;96657.38;;;19.49;100.00
12759;BME280;20944;47.048;15.390;2023-08-30T10:28:22;96664.16;;;19.64;100.00
12759;BME280;20944;47.048;15.390;2023-08-30T10:33:19;96661.81;;;19.93;100.00
12759;BME280;20944;47.048;15.390;2023-08-30T10:36:04;96667.94;;;20.05;100.00
12759;BME280;20944;47.048;15.390;2023-08-30T10:38:33;96633.13;;;20.08;100.00
12759;BME280;20944;47.048;15.390;2023-08-30T10:41:09;96660.03;;;20.26;100.00
12759;BME280;20944;47.048;15.390;2023-08-30T10:43:37;96644.19;;;20.24;100.00
12759;BME280;20944;47.048;15.390;2023-08-30T10:46:06;96621.28;;;20.12;100.00
12759;BME280;20944;47.048;15.390;2023-08-30T10:48:36;96650.91;;;20.39;100.00
12759;BME280;20944;47.048;15.390;2023-08-30T10:51:10;96659.22;;;20.57;100.00
12759;BME280;20944;47.048;15.390;2023-08-30T10:53:44;96663.41;;;20.60;100.00
12759;BME280;20944;47.048;15.390;2023-08-30T10:56:27;96656.81;;;20.75;100.00
12759;BME280;20944;47.048;15.390;2023-08-30T10:58:56;96659.78;;;21.02;100.00
12759;BME280;20944;47.048;15.390;2023-08-30T11:01:24;96651.75;;;21.23;100.00
12759;BME280;20944;47.048;15.390;2023-08-30T11:03:53;96662.28;;;21.46;100.00
12759;BME280;20944;47.048;15.390;2023-08-30T11:06:43;96657.13;;;21.54;100.00
12759;BME280;20944;47.048;15.390;2023-08-30T11:09:16;96628.94;;;21.51;100.00
12759;BME280;20944;47.048;15.390;2023-08-30T11:11:46;96663.78;;;21.69;100.00
12759;BME280;20944;47.048;15.390;2023-08-30T11:14:15;96663.44;;;21.53;100.00
12759;BME280;20944;47.048;15.390;2023-08-30T11:16:44;96660.72;;;21.43;100.00
12759;BME280;20944;47.048;15.390;2023-08-30T11:19:12;96657.22;;;21.43;100.00
12759;BME280;20944;47.048;15.390;2023-08-30T11:21:43;96617.97;;;21.54;78.84
12759;BME280;20944;47.048;15.390;2023-08-30T11:24:12;96656.16;;;21.95;72.68
12759;BME280;20944;47.048;15.390;2023-08-30T11:26:41;96616.38;;;21.83;72.98
12759;BME280;20944;47.048;15.390;2023-08-30T11:29:09;96658.44;;;22.10;71.56
12759;BME280;20944;47.048;15.390;2023-08-30T11:31:37;96649.19;;;22.14;70.18
12759;BME280;20944;47.048;15.390;2023-08-30T11:34:06;96650.88;;;22.15;71.96
12759;BME280;20944;47.048;15.390;2023-08-30T11:36:35;96646.81;;;22.20;73.29
12759;BME280;20944;47.048;15.390;2023-08-30T11:39:07;96648.97;;;22.05;77.25
12759;BME280;20944;47.048;15.390;2023-08-30T11:41:37;96646.81;;;22.20;78.04
12759;BME280;20944;47.048;15.390;2023-08-30T11:44:06;96655.38;;;22.33;74.66
12759;BME280;20944;47.048;15.390;2023-08-30T11:46:34;96644.94;;;22.11;72.56
12759;BME280;20944;47.048;15.390;2023-08-30T11:49:03;96641.91;;;21.85;73.97
12759;BME280;20944;47.048;15.390;2023-08-30T11:51:31;96617.97;;;21.45;73.93
12759;BME280;20944;47.048;15.390;2023-08-30T11:54:00;96636.09;;;21.51;76.83
12759;BME280;20944;47.048;15.390;2023-08-30T11:56:31;96634.25;;;21.51;76.61
12759;BME280;20944;47.048;15.390;2023-08-30T11:59:01;96650.81;;;21.55;74.65
12759;BME280;20944;47.048;15.390;2023-08-30T12:01:32;96634.56;;;21.58;76.52
12759;BME280;20944;47.048;15.390;2023-08-30T12:04:09;96613.38;;;21.66;75.03
12759;BME280;20944;47.048;15.390;2023-08-30T12:06:37;96638.22;;;22.17;77.67
12759;BME280;20944;47.048;15.390;2023-08-30T12:09:11;96632.88;;;22.36;72.50
12759;BME280;20944;47.048;15.390;2023-08-30T12:11:41;96628.53;;;22.54;71.82
12759;BME280;20944;47.048;15.390;2023-08-30T12:14:11;96628.41;;;22.46;69.77
12759;BME280;20944;47.048;15.390;2023-08-30T12:16:40;96584.44;;;22.21;69.27
12759;BME280;20944;47.048;15.390;2023-08-30T12:19:09;96616.56;;;22.78;68.86
12759;BME280;20944;47.048;15.390;2023-08-30T12:21:41;96574.81;;;22.86;69.89
12759;BME280;20944;47.048;15.390;2023-08-30T12:24:10;96615.19;;;23.30;71.37
12759;BME280;20944;47.048;15.390;2023-08-30T12:26:38;96621.44;;;23.49;65.62
12759;BME280;20944;47.048;15.390;2023-08-30T12:29:08;96607.47;;;23.55;68.41
12759;BME280;20944;47.048;15.390;2023-08-30T12:31:36;96621.38;;;23.68;65.28
12759;BME280;20944;47.048;15.390;2023-08-30T12:34:04;96611.28;;;23.62;66.86
12759;BME280;20944;47.048;15.390;2023-08-30T12:36:32;96608.47;;;23.63;68.52
12759;BME280;20944;47.048;15.390;2023-08-30T12:39:01;96608.22;;;23.10;67.10
12759;BME280;20944;47.048;15.390;2023-08-30T12:41:31;96607.44;;;22.71;70.37
12759;BME280;20944;47.048;15.390;2023-08-30T12:43:59;96613.63;;;22.23;71.89
12759;BME280;20944;47.048;15.390;2023-08-30T12:46:30;96619.88;;;21.83;73.94
12759;BME280;20944;47.048;15.390;2023-08-30T12:48:58;96608.28;;;21.53;74.56
12759;BME280;20944;47.048;15.390;2023-08-30T12:51:26;96613.56;;;21.34;75.04
12759;BME280;20944;47.048;15.390;2023-08-30T12:53:55;96615.53;;;21.32;76.15